Time;durP1;ratioP1;P1;durP2;ratioP2;P2;SDS_P1;SDS_P2;PMS_P1;PMS_P2;Temp;Humidity;BMP_temperature;BMP_pressure;BME280_temperature;BME280_humidity;BME280_pressure;Samples;Min_cycle;Max_cycle;Signal;HPM_P1;HPM_P2
2021/06/30 00:01:59;;;;;;;22.33;15.50;;;16.80;92.20;;;;;;5097245;28;20016;-48
2021/06/30 00:04:25;;;;;;;24.90;16.33;;;16.90;92.10;;;;;;5096419;28;20031;-48
2021/06/30 00:06:51;;;;;;;20.30;15.38;;;16.80;91.90;;;;;;5095593;28;20103;-50
2021/06/30 00:09:17;;;;;;;22.13;13.23;;;16.80;92.20;;;;;;5095638;28;20529;-51
2021/06/30 00:11:43;;;;;;;20.00;13.57;;;17.00;92.40;;;;;;5076966;28;20028;-49
2021/06/30 00:14:10;;;;;;;15.10;12.27;;;17.00;92.10;;;;;;5095290;28;20035;-49
2021/06/30 00:16:36;;;;;;;15.85;12.38;;;16.80;92.20;;;;;;5095228;28;20050;-47
2021/06/30 00:19:06;;;;;;;15.73;11.73;;;16.80;92.30;;;;;;5094806;28;20027;-48
2021/06/30 00:21:32;;;;;;;17.20;12.23;;;16.90;92.10;;;;;;5095097;28;20030;-51
2021/06/30 00:23:57;;;;;;;14.55;10.85;;;16.90;91.40;;;;;;5095430;28;20099;-51
2021/06/30 00:26:23;;;;;;;17.05;11.35;;;16.80;91.20;;;;;;5094199;28;20024;-50
2021/06/30 00:28:49;;;;;;;15.95;10.68;;;16.80;91.50;;;;;;5076647;28;20024;-49
2021/06/30 00:31:16;;;;;;;14.93;11.90;;;16.60;91.70;;;;;;5095169;28;20407;-48
2021/06/30 00:33:42;;;;;;;14.75;9.50;;;16.60;91.90;;;;;;5094454;28;20060;-51
2021/06/30 00:36:08;;;;;;;14.77;11.55;;;16.70;91.30;;;;;;5094956;28;20024;-47
2021/06/30 00:38:33;;;;;;;13.93;10.50;;;16.80;91.20;;;;;;5094707;28;20376;-48
2021/06/30 00:40:59;;;;;;;16.20;12.23;;;16.70;91.00;;;;;;5094525;28;20028;-37
2021/06/30 00:43:25;;;;;;;16.65;12.73;;;16.50;91.30;;;;;;5094552;28;20066;-38
2021/06/30 00:45:51;;;;;;;17.85;12.25;;;16.50;91.40;;;;;;5095259;28;20020;-38
2021/06/30 00:48:17;;;;;;;22.52;15.70;;;16.70;91.50;;;;;;5094712;28;20103;-38
2021/06/30 00:50:42;;;;;;;19.23;13.52;;;16.60;91.40;;;;;;5094349;28;20480;-36
2021/06/30 00:53:08;;;;;;;20.48;14.32;;;16.60;91.60;;;;;;5094697;28;20042;-35
2021/06/30 00:55:34;;;;;;;22.08;14.50;;;16.60;91.90;;;;;;5094572;28;20406;-37
2021/06/30 00:57:59;;;;;;;17.25;12.73;;;16.50;91.60;;;;;;5094184;28;20024;-36
2021/06/30 01:00:25;;;;;;;18.95;13.02;;;16.40;91.70;;;;;;5093988;28;20024;-37
2021/06/30 01:02:51;;;;;;;18.27;13.18;;;16.40;92.00;;;;;;5094470;28;20020;-37
2021/06/30 01:05:17;;;;;;;18.95;14.38;;;16.50;92.00;;;;;;5094304;28;20082;-37
2021/06/30 01:07:45;;;;;;;17.00;11.63;;;16.50;91.70;;;;;;5094183;28;20028;-37
2021/06/30 01:10:11;;;;;;;20.98;13.10;;;16.60;91.30;;;;;;5076399;28;20028;-37
2021/06/30 01:12:37;;;;;;;17.45;12.02;;;16.80;91.40;;;;;;5094357;28;20360;-37
2021/06/30 01:15:05;;;;;;;14.55;10.55;;;16.80;90.90;;;;;;5095686;28;20585;-37
2021/06/30 01:17:31;;;;;;;13.48;10.55;;;16.40;91.50;;;;;;5094824;28;20032;-37
2021/06/30 01:19:57;;;;;;;10.73;9.18;;;16.60;91.80;;;;;;5094224;28;20035;-37
2021/06/30 01:22:24;;;;;;;12.80;9.70;;;16.60;91.30;;;;;;5094654;28;20055;-37
2021/06/30 01:24:52;;;;;;;11.77;9.35;;;16.60;91.20;;;;;;5094074;28;20016;-37
2021/06/30 01:27:19;;;;;;;12.00;9.40;;;16.60;91.10;;;;;;5076693;28;20027;-37
2021/06/30 01:29:46;;;;;;;14.45;11.07;;;16.60;91.10;;;;;;5093834;28;20024;-37
2021/06/30 01:32:11;;;;;;;15.45;10.80;;;16.60;92.10;;;;;;5093955;28;20035;-42
2021/06/30 01:34:37;;;;;;;12.82;9.43;;;16.70;91.30;;;;;;5093767;28;20047;-37
2021/06/30 01:37:03;;;;;;;11.35;8.80;;;16.70;90.80;;;;;;5093816;28;20472;-36
2021/06/30 01:39:29;;;;;;;12.02;8.27;;;16.40;91.70;;;;;;5097407;28;20034;-36
2021/06/30 01:41:55;;;;;;;10.68;8.48;;;16.30;92.20;;;;;;5098013;28;20016;-36
2021/06/30 01:44:21;;;;;;;10.82;8.57;;;16.50;92.40;;;;;;5079651;28;20028;-37
2021/06/30 01:46:47;;;;;;;9.80;8.35;;;16.60;91.30;;;;;;5097977;28;20380;-37
2021/06/30 01:49:13;;;;;;;10.88;8.32;;;16.50;91.20;;;;;;5098008;28;20046;-36
2021/06/30 01:51:40;;;;;;;12.20;8.25;;;16.40;91.20;;;;;;5097687;28;20468;-38
2021/06/30 01:54:11;;;;;;;12.27;10.38;;;16.40;91.50;;;;;;5098236;28;20039;-38
2021/06/30 01:56:37;;;;;;;10.85;8.90;;;16.40;91.30;;;;;;5098281;28;20099;-37
2021/06/30 01:59:04;;;;;;;12.50;9.32;;;16.30;91.50;;;;;;5097731;28;20017;-37
2021/06/30 02:01:30;;;;;;;12.38;9.77;;;16.40;91.80;;;;;;5097661;28;20032;-37
2021/06/30 02:03:58;;;;;;;12.00;9.75;;;16.50;91.50;;;;;;5097767;28;20032;-37
2021/06/30 02:06:25;;;;;;;14.23;11.05;;;16.60;91.30;;;;;;5097826;28;20067;-37
2021/06/30 02:08:57;;;;;;;14.60;10.40;;;16.50;90.70;;;;;;5097599;28;20101;-37
2021/06/30 02:11:24;;;;;;;15.15;11.50;;;16.60;90.90;;;;;;5097292;28;20042;-37
2021/06/30 02:13:50;;;;;;;16.83;11.52;;;16.60;91.10;;;;;;5078935;28;20070;-37
2021/06/30 02:16:16;;;;;;;24.00;14.02;;;16.40;91.30;;;;;;5097399;28;20024;-37
2021/06/30 02:18:41;;;;;;;28.77;16.63;;;16.30;92.00;;;;;;5097380;28;20028;-48
2021/06/30 02:21:08;;;;;;;24.80;17.58;;;16.30;91.70;;;;;;5097456;28;20031;-49
2021/06/30 02:23:34;;;;;;;27.92;18.80;;;16.30;91.50;;;;;;5097080;28;20032;-48
2021/06/30 02:25:59;;;;;;;28.83;19.05;;;16.40;91.10;;;;;;5096996;28;20026;-51
2021/06/30 02:28:25;;;;;;;37.25;19.58;;;16.60;90.30;;;;;;5097025;28;20027;-50
2021/06/30 02:30:51;;;;;;;35.10;21.40;;;16.50;90.50;;;;;;5097242;28;20073;-50
2021/06/30 02:33:17;;;;;;;35.63;21.23;;;16.30;91.40;;;;;;5078081;28;20048;-50
2021/06/30 02:35:43;;;;;;;31.38;21.38;;;16.30;91.80;;;;;;5095609;28;20107;-50
2021/06/30 02:38:09;;;;;;;33.60;21.38;;;16.20;91.70;;;;;;5095360;28;20032;-50
2021/06/30 02:40:35;;;;;;;32.15;19.60;;;16.20;92.10;;;;;;5095673;28;20417;-51
2021/06/30 02:43:01;;;;;;;35.22;19.67;;;16.10;92.10;;;;;;5095263;28;20031;-51
2021/06/30 02:45:27;;;;;;;34.90;21.00;;;16.20;92.00;;;;;;5095168;28;20046;-51
2021/06/30 02:47:53;;;;;;;35.67;20.08;;;16.10;91.70;;;;;;5093826;28;20387;-49
2021/06/30 02:50:20;;;;;;;34.65;19.23;;;16.10;91.60;;;;;;5095247;28;20024;-48
2021/06/30 02:52:47;;;;;;;42.45;22.55;;;16.00;91.70;;;;;;5095273;28;20095;-48
2021/06/30 02:55:15;;;;;;;38.72;22.02;;;16.00;91.90;;;;;;5095151;28;20024;-48
2021/06/30 02:57:41;;;;;;;40.83;22.35;;;16.10;91.80;;;;;;5095561;28;20028;-53
2021/06/30 03:00:10;;;;;;;42.88;21.27;;;16.10;91.60;;;;;;5095192;28;20401;-48
2021/06/30 03:02:37;;;;;;;42.00;21.98;;;16.00;91.90;;;;;;5095216;28;20100;-51
2021/06/30 03:05:04;;;;;;;42.95;21.58;;;16.10;91.70;;;;;;5095084;28;20020;-49
2021/06/30 03:07:30;;;;;;;43.17;22.63;;;16.00;91.80;;;;;;5095171;28;20035;-52
2021/06/30 03:09:56;;;;;;;32.78;18.45;;;16.00;92.20;;;;;;5095119;28;20024;-51
2021/06/30 03:12:21;;;;;;;29.73;17.52;;;16.00;92.00;;;;;;5094816;28;20020;-50
2021/06/30 03:14:47;;;;;;;33.40;19.08;;;15.80;92.00;;;;;;5076787;28;20074;-49
2021/06/30 03:17:12;;;;;;;28.98;17.25;;;15.80;92.40;;;;;;5094769;28;20093;-52
2021/06/30 03:19:38;;;;;;;34.30;17.65;;;15.90;92.50;;;;;;5095061;28;20463;-48
2021/06/30 03:22:04;;;;;;;31.80;17.08;;;15.90;92.10;;;;;;5094702;28;20069;-52
2021/06/30 03:24:30;;;;;;;28.55;16.80;;;16.00;91.90;;;;;;5094723;28;20047;-48
2021/06/30 03:26:55;;;;;;;25.40;15.10;;;16.00;92.10;;;;;;5094789;28;20480;-48
2021/06/30 03:29:21;;;;;;;23.58;14.70;;;16.00;92.00;;;;;;5094899;28;20035;-51
2021/06/30 03:31:46;;;;;;;24.65;15.45;;;15.90;92.10;;;;;;5094856;28;20020;-48
2021/06/30 03:34:12;;;;;;;21.98;14.43;;;16.20;92.80;;;;;;5053868;28;1170754;-40
2021/06/30 03:36:38;;;;;;;23.70;13.70;;;16.30;91.70;;;;;;5095954;28;20468;-37
2021/06/30 03:39:04;;;;;;;21.77;13.73;;;16.30;91.10;;;;;;5095745;28;20032;-37
2021/06/30 03:41:30;;;;;;;20.58;12.45;;;16.20;91.20;;;;;;5095623;28;20161;-37
2021/06/30 03:43:56;;;;;;;21.10;13.40;;;16.10;92.10;;;;;;5095509;28;20020;-37
2021/06/30 03:46:21;;;;;;;18.10;13.55;;;16.20;92.30;;;;;;5095644;28;20042;-37
2021/06/30 03:48:47;;;;;;;20.10;13.50;;;16.20;91.90;;;;;;5095912;28;20031;-37
2021/06/30 03:51:13;;;;;;;19.80;13.43;;;16.40;91.40;;;;;;5095660;28;20024;-37
2021/06/30 03:53:38;;;;;;;24.17;15.73;;;16.50;90.80;;;;;;5095172;28;20060;-37
2021/06/30 03:56:04;;;;;;;21.85;15.77;;;16.50;90.30;;;;;;5093974;28;20440;-37
2021/06/30 03:58:31;;;;;;;21.73;14.30;;;16.50;90.40;;;;;;5095335;28;20097;-37
2021/06/30 04:00:57;;;;;;;20.60;13.32;;;16.50;90.50;;;;;;5094878;28;20077;-37
2021/06/30 04:03:23;;;;;;;16.88;13.23;;;16.40;90.50;;;;;;5095343;28;20479;-37
2021/06/30 04:05:49;;;;;;;26.83;13.68;;;16.40;90.50;;;;;;5095549;28;20023;-37
2021/06/30 04:08:15;;;;;;;21.20;13.85;;;16.30;91.00;;;;;;5095123;28;20099;-36
2021/06/30 04:10:41;;;;;;;17.40;13.65;;;16.30;90.90;;;;;;5094796;28;20028;-37
2021/06/30 04:13:08;;;;;;;23.70;14.82;;;16.40;91.00;;;;;;5095376;28;20020;-36
2021/06/30 04:15:34;;;;;;;19.45;14.13;;;16.50;91.20;;;;;;5076521;28;20028;-36
2021/06/30 04:18:04;;;;;;;23.15;14.98;;;16.30;90.70;;;;;;5095120;28;20049;-36
2021/06/30 04:20:30;;;;;;;18.02;13.63;;;16.30;91.40;;;;;;5076671;28;20498;-36
2021/06/30 04:22:55;;;;;;;18.33;14.02;;;16.30;91.20;;;;;;5094283;28;20032;-37
2021/06/30 04:25:21;;;;;;;19.27;14.00;;;16.30;91.00;;;;;;5094559;28;20035;-37
2021/06/30 04:27:46;;;;;;;17.25;12.90;;;16.30;91.10;;;;;;5094895;28;20087;-38
2021/06/30 04:30:13;;;;;;;17.73;14.32;;;16.40;90.60;;;;;;5094509;28;20486;-38
2021/06/30 04:32:38;;;;;;;21.35;14.93;;;16.50;89.90;;;;;;5094181;28;20046;-39
2021/06/30 04:35:05;;;;;;;18.90;13.63;;;16.50;90.20;;;;;;5094112;28;20047;-37
2021/06/30 04:37:31;;;;;;;19.60;13.25;;;16.50;90.00;;;;;;5076416;28;20404;-38
2021/06/30 04:40:01;;;;;;;18.20;13.32;;;16.40;90.70;;;;;;5094145;28;20031;-37
2021/06/30 04:42:27;;;;;;;16.75;12.48;;;16.30;90.40;;;;;;5094122;28;20016;-37
2021/06/30 04:44:53;;;;;;;15.68;12.65;;;16.40;90.50;;;;;;5076257;28;20073;-37
2021/06/30 04:47:18;;;;;;;15.95;12.80;;;16.30;91.00;;;;;;5094801;28;20077;-38
2021/06/30 04:49:44;;;;;;;15.63;12.00;;;16.30;90.80;;;;;;5094306;28;20035;-38
2021/06/30 04:52:09;;;;;;;21.15;12.60;;;16.30;91.10;;;;;;5094489;28;20088;-38
2021/06/30 04:54:35;;;;;;;15.20;12.52;;;16.40;90.60;;;;;;5093782;28;20039;-39
2021/06/30 04:57:01;;;;;;;20.23;13.75;;;16.50;90.10;;;;;;5092910;28;20035;-37
2021/06/30 04:59:26;;;;;;;15.70;12.75;;;16.50;89.80;;;;;;5094198;28;20468;-37
2021/06/30 05:01:52;;;;;;;18.50;12.07;;;16.40;90.20;;;;;;5094002;28;20027;-36
2021/06/30 05:04:19;;;;;;;17.35;12.57;;;16.60;89.60;;;;;;5094152;28;20027;-37
2021/06/30 05:06:45;;;;;;;15.27;11.88;;;16.70;89.50;;;;;;5076191;28;20027;-37
2021/06/30 05:09:11;;;;;;;14.73;11.50;;;16.50;89.80;;;;;;5093763;28;20039;-37
2021/06/30 05:11:37;;;;;;;17.13;11.25;;;16.60;89.60;;;;;;5094287;28;20043;-39
2021/06/30 05:14:03;;;;;;;17.20;11.40;;;16.40;90.30;;;;;;5094267;28;20028;-36
2021/06/30 05:16:28;;;;;;;16.50;12.35;;;16.40;90.50;;;;;;5075760;28;20030;-36
2021/06/30 05:18:54;;;;;;;17.38;11.63;;;16.50;89.90;;;;;;5094126;28;20024;-36
2021/06/30 05:21:21;;;;;;;16.08;11.27;;;16.40;90.10;;;;;;5093618;28;20051;-36
2021/06/30 05:23:47;;;;;;;19.20;12.77;;;16.50;90.40;;;;;;5093970;28;20016;-36
2021/06/30 05:26:13;;;;;;;24.23;12.98;;;16.60;89.60;;;;;;5093554;28;20035;-36
2021/06/30 05:28:39;;;;;;;19.52;13.05;;;16.50;89.70;;;;;;5093502;28;20020;-36
2021/06/30 05:31:05;;;;;;;22.45;13.90;;;16.50;90.30;;;;;;5093761;28;20054;-36
2021/06/30 05:33:30;;;;;;;20.98;13.27;;;16.50;90.50;;;;;;5092872;28;20051;-36
2021/06/30 05:35:56;;;;;;;20.73;14.18;;;16.60;89.80;;;;;;5093117;28;20032;-36
2021/06/30 05:38:25;;;;;;;21.30;12.60;;;16.60;90.00;;;;;;5075350;28;20111;-37
2021/06/30 05:40:52;;;;;;;21.08;14.23;;;16.40;90.40;;;;;;5093661;28;20028;-38
2021/06/30 05:43:18;;;;;;;21.42;14.30;;;16.50;90.80;;;;;;5094076;28;20028;-45
2021/06/30 05:45:44;;;;;;;18.67;13.63;;;16.60;90.30;;;;;;5093969;28;20024;-38
2021/06/30 05:48:10;;;;;;;17.27;13.68;;;16.50;90.90;;;;;;5093516;28;20078;-38
2021/06/30 05:50:36;;;;;;;19.50;14.77;;;16.60;90.30;;;;;;5093505;28;20025;-37
2021/06/30 05:53:02;;;;;;;23.98;15.00;;;16.60;90.20;;;;;;5095035;28;20059;-38
2021/06/30 05:55:28;;;;;;;21.48;16.27;;;16.60;90.30;;;;;;5093280;28;20024;-38
2021/06/30 05:57:54;;;;;;;20.98;15.32;;;16.60;90.00;;;;;;5094106;28;20476;-36
2021/06/30 06:00:21;;;;;;;23.65;15.32;;;16.40;91.20;;;;;;5093572;28;20104;-37
2021/06/30 06:02:48;;;;;;;21.85;14.63;;;16.70;90.40;;;;;;5094217;28;20035;-36
2021/06/30 06:05:14;;;;;;;22.95;14.57;;;16.70;90.20;;;;;;5093570;28;20028;-37
2021/06/30 06:07:40;;;;;;;22.92;14.15;;;16.80;90.00;;;;;;5093693;28;20456;-37
2021/06/30 06:10:08;;;;;;;20.33;15.15;;;16.80;89.50;;;;;;5093377;28;20161;-36
2021/06/30 06:12:34;;;;;;;19.30;13.38;;;16.90;90.00;;;;;;5075481;28;20032;-37
2021/06/30 06:15:00;;;;;;;16.85;13.05;;;16.70;90.20;;;;;;5093617;28;20042;-37
2021/06/30 06:17:25;;;;;;;21.42;12.88;;;16.80;90.20;;;;;;5093466;28;20039;-37
2021/06/30 06:19:51;;;;;;;22.92;12.65;;;16.70;90.50;;;;;;5094248;28;20378;-37
2021/06/30 06:22:17;;;;;;;17.20;13.82;;;16.80;90.70;;;;;;5092854;28;20026;-37
2021/06/30 06:24:43;;;;;;;38.03;29.00;;;16.80;90.60;;;;;;5095851;28;20020;-39
2021/06/30 06:27:09;;;;;;;15.35;10.63;;;17.20;90.30;;;;;;5095744;28;20089;-37
2021/06/30 06:29:35;;;;;;;19.63;10.88;;;17.20;88.50;;;;;;5096900;28;20020;-37
2021/06/30 06:32:01;;;;;;;17.05;10.85;;;17.20;88.40;;;;;;5078464;28;20024;-37
2021/06/30 06:34:28;;;;;;;12.88;9.50;;;17.00;89.10;;;;;;5095972;28;20044;-37
2021/06/30 06:36:55;;;;;;;12.68;9.55;;;17.10;88.20;;;;;;5096801;28;20024;-38
2021/06/30 06:39:21;;;;;;;12.57;8.95;;;17.10;87.70;;;;;;5096367;28;20103;-38
2021/06/30 06:41:47;;;;;;;9.70;7.15;;;17.20;87.50;;;;;;5096380;28;20027;-38
2021/06/30 06:44:13;;;;;;;10.23;7.65;;;16.90;88.90;;;;;;5095912;28;20024;-38
2021/06/30 06:46:39;;;;;;;9.23;7.85;;;17.00;88.30;;;;;;5096322;28;20375;-38
2021/06/30 06:49:07;;;;;;;14.10;7.63;;;17.00;88.50;;;;;;5079187;28;20024;-38
2021/06/30 06:51:32;;;;;;;10.95;7.57;;;17.20;88.10;;;;;;5097097;28;20406;-38
2021/06/30 06:54:01;;;;;;;10.38;6.88;;;17.40;87.00;;;;;;5096180;28;20024;-39
2021/06/30 06:56:27;;;;;;;9.90;6.47;;;17.30;86.80;;;;;;5096241;28;20031;-37
2021/06/30 06:58:54;;;;;;;9.13;7.90;;;17.10;88.30;;;;;;5095789;28;20047;-36
2021/06/30 07:01:20;;;;;;;8.57;5.88;;;17.20;88.00;;;;;;5096088;28;20073;-38
2021/06/30 07:03:46;;;;;;;7.45;5.78;;;17.20;87.70;;;;;;5095442;28;20030;-39
2021/06/30 07:06:12;;;;;;;7.20;5.45;;;17.30;87.00;;;;;;5076876;28;20107;-38
2021/06/30 07:08:38;;;;;;;15.02;6.15;;;17.40;86.50;;;;;;5078104;28;20016;-37
2021/06/30 07:11:04;;;;;;;9.45;5.65;;;17.50;86.10;;;;;;5095904;28;20475;-47
2021/06/30 07:13:30;;;;;;;10.75;6.20;;;17.40;87.60;;;;;;5095418;28;20024;-49
2021/06/30 07:15:55;;;;;;;7.45;6.25;;;17.40;87.40;;;;;;5077525;28;20032;-49
2021/06/30 07:18:21;;;;;;;10.57;6.22;;;17.40;87.80;;;;;;5095170;28;20031;-50
2021/06/30 07:20:47;;;;;;;10.63;6.93;;;17.50;87.00;;;;;;5095312;28;20017;-49
2021/06/30 07:23:12;;;;;;;9.20;7.10;;;17.40;87.50;;;;;;5077566;28;20031;-52
2021/06/30 07:25:39;;;;;;;8.25;7.07;;;17.70;87.90;;;;;;5095999;28;20020;-48
2021/06/30 07:28:05;;;;;;;10.45;7.50;;;17.70;87.60;;;;;;5077691;28;20012;-47
2021/06/30 07:30:31;;;;;;;7.60;6.53;;;17.30;88.90;;;;;;5095594;28;20403;-48
2021/06/30 07:32:57;;;;;;;7.65;6.53;;;17.10;89.70;;;;;;5095000;28;20073;-48
2021/06/30 07:35:23;;;;;;;6.72;5.55;;;17.30;88.70;;;;;;5073734;28;20480;-50
2021/06/30 07:37:49;;;;;;;7.35;6.20;;;17.30;88.00;;;;;;5074934;28;20043;-49
2021/06/30 07:40:15;;;;;;;35.10;19.85;;;17.30;88.50;;;;;;5074669;28;20036;-50
2021/06/30 07:42:41;;;;;;;8.10;6.90;;;17.30;89.00;;;;;;5074609;28;20051;-49
2021/06/30 07:45:07;;;;;;;8.27;7.45;;;17.30;89.00;;;;;;5075131;28;20074;-48
2021/06/30 07:47:33;;;;;;;11.50;7.72;;;17.40;87.80;;;;;;5072899;28;20021;-53
2021/06/30 07:50:00;;;;;;;9.85;7.00;;;17.60;87.60;;;;;;5074644;28;20040;-53
2021/06/30 07:52:26;;;;;;;16.67;8.23;;;17.60;87.20;;;;;;5074501;28;20046;-51
2021/06/30 07:54:52;;;;;;;8.77;7.63;;;17.50;88.00;;;;;;5075297;28;20024;-50
2021/06/30 07:57:17;;;;;;;12.25;8.20;;;17.80;87.60;;;;;;5075479;28;20055;-51
2021/06/30 08:00:00;;;;;;;7.00;6.30;;;17.90;87.30;;;;;;5076165;28;20024;-53
2021/06/30 08:02:26;;;;;;;8.02;7.22;;;18.20;85.20;;;;;;5060250;28;20024;-51
2021/06/30 08:04:51;;;;;;;10.40;7.18;;;18.30;86.60;;;;;;5075316;28;20028;-50
2021/06/30 08:07:17;;;;;;;8.20;6.72;;;18.70;84.00;;;;;;5074788;28;20024;-50
2021/06/30 08:09:43;;;;;;;9.23;7.60;;;18.60;84.40;;;;;;5075415;28;20070;-49
2021/06/30 08:12:09;;;;;;;10.77;8.68;;;18.30;85.40;;;;;;5073867;28;20535;-51
2021/06/30 08:14:35;;;;;;;7.75;6.97;;;18.30;86.70;;;;;;5074403;28;20090;-50
2021/06/30 08:17:02;;;;;;;10.00;9.00;;;17.90;86.30;;;;;;5075378;28;20025;-48
2021/06/30 08:19:28;;;;;;;11.25;10.05;;;18.00;85.80;;;;;;5075016;28;20025;-48
2021/06/30 08:21:54;;;;;;;14.70;11.75;;;18.20;85.20;;;;;;5073717;28;20388;-51
2021/06/30 08:24:20;;;;;;;17.40;11.55;;;18.40;84.30;;;;;;5074359;28;20027;-47
2021/06/30 08:26:46;;;;;;;12.35;10.80;;;18.50;84.60;;;;;;5074441;28;20416;-49
2021/06/30 08:29:11;;;;;;;13.10;11.00;;;19.00;83.20;;;;;;5074319;28;20372;-48
2021/06/30 08:31:37;;;;;;;13.30;11.30;;;19.10;81.90;;;;;;5074259;28;20543;-48
2021/06/30 08:34:03;;;;;;;12.65;10.23;;;19.80;79.90;;;;;;5083052;28;20047;-54
2021/06/30 08:36:29;;;;;;;11.93;10.32;;;19.50;79.60;;;;;;5093721;28;20028;-54
2021/06/30 08:38:55;;;;;;;14.48;11.52;;;19.30;81.60;;;;;;5094104;28;20028;-47
2021/06/30 08:41:23;;;;;;;20.00;13.40;;;19.00;81.20;;;;;;5093837;28;20058;-50
2021/06/30 08:43:49;;;;;;;17.85;13.27;;;18.60;82.10;;;;;;5093881;28;20024;-50
2021/06/30 08:46:19;;;;;;;16.85;11.55;;;18.80;81.70;;;;;;5074908;28;20438;-50
2021/06/30 08:48:46;;;;;;;17.48;12.07;;;19.10;81.50;;;;;;5076116;28;20076;-49
2021/06/30 08:51:22;;;;;;;14.85;10.60;;;19.30;80.00;;;;;;5076074;28;20043;-49
2021/06/30 08:53:49;;;;;;;13.15;10.02;;;19.50;79.70;;;;;;5094764;28;20511;-50
2021/06/30 08:56:18;;;;;;;13.45;9.65;;;19.90;77.60;;;;;;5093602;28;20471;-48
2021/06/30 08:58:56;;;;;;;10.40;7.97;;;20.70;75.30;;;;;;5098341;28;20024;-40
2021/06/30 09:01:22;;;;;;;10.77;9.02;;;20.00;75.00;;;;;;5095662;28;20073;-37
2021/06/30 09:03:51;;;;;;;11.05;8.23;;;19.30;78.10;;;;;;5075438;28;20028;-37
2021/06/30 09:06:20;;;;;;;11.38;9.02;;;19.30;78.20;;;;;;5093290;28;20043;-37
2021/06/30 09:08:48;;;;;;;11.32;9.57;;;19.30;78.70;;;;;;5075361;28;20024;-37
2021/06/30 09:11:16;;;;;;;12.43;9.35;;;19.20;79.80;;;;;;5093547;28;20028;-37
2021/06/30 09:13:42;;;;;;;11.63;10.27;;;19.80;78.90;;;;;;5093557;28;20059;-37
2021/06/30 09:16:08;;;;;;;12.45;10.60;;;20.70;75.20;;;;;;5093377;28;20027;-38
2021/06/30 09:18:42;;;;;;;14.32;11.27;;;21.30;71.00;;;;;;5093110;28;20421;-38
2021/06/30 09:21:29;;;;;;;12.07;10.38;;;21.00;70.40;;;;;;5093059;28;20031;-38
2021/06/30 09:24:08;;;;;;;14.18;11.07;;;20.30;73.80;;;;;;5093268;28;20036;-38
2021/06/30 09:26:45;;;;;;;15.00;13.05;;;21.70;70.00;;;;;;5093499;28;20028;-37
2021/06/30 09:29:12;;;;;;;16.55;13.15;;;22.60;65.50;;;;;;5093836;28;20036;-36
2021/06/30 09:31:43;;;;;;;21.70;15.88;;;21.90;68.60;;;;;;5092859;28;20028;-37
2021/06/30 09:34:09;;;;;;;;;;;21.10;70.50;;;;;;5093344;28;20454;-37
2021/06/30 09:36:58;;;;;;;24.65;15.68;;;20.40;73.40;;;;;;5092820;28;20376;-48
2021/06/30 09:39:25;;;;;;;23.52;15.65;;;20.00;75.40;;;;;;5092690;28;20020;-48
2021/06/30 09:42:04;;;;;;;24.83;17.73;;;20.10;76.10;;;;;;5092667;28;20034;-52
2021/06/30 09:44:33;;;;;;;22.42;17.45;;;19.80;75.30;;;;;;5093530;28;20020;-62
2021/06/30 09:46:59;;;;;;;23.33;17.38;;;20.00;75.70;;;;;;5074617;28;20456;-48
2021/06/30 09:49:28;;;;;;;26.00;17.77;;;19.90;76.10;;;;;;5092875;28;20150;-52
2021/06/30 09:52:09;;;;;;;33.92;20.05;;;19.90;75.80;;;;;;5092533;28;20103;-51
2021/06/30 09:54:36;;;;;;;25.85;19.25;;;19.90;76.60;;;;;;5092743;28;20111;-50
2021/06/30 09:57:10;;;;;;;24.23;18.08;;;19.60;75.80;;;;;;5074908;28;20089;-50
2021/06/30 09:59:41;;;;;;;23.17;18.50;;;19.80;75.70;;;;;;5077745;28;20032;-49
2021/06/30 10:02:11;;;;;;;24.05;18.60;;;20.00;75.20;;;;;;5096778;28;20043;-50
2021/06/30 10:04:39;;;;;;;21.88;18.13;;;20.00;74.70;;;;;;5096503;28;20020;-49
2021/06/30 10:07:24;;;;;;;28.77;17.52;;;19.70;75.20;;;;;;5097197;28;20107;-48
2021/06/30 10:09:50;;;;;;;22.27;17.67;;;19.40;76.50;;;;;;5097312;28;20111;-48
2021/06/30 10:12:18;;;;;;;23.73;17.70;;;19.60;75.30;;;;;;5094664;28;20094;-49
2021/06/30 10:14:45;;;;;;;21.70;17.23;;;19.80;74.60;;;;;;5096281;28;20099;-51
2021/06/30 10:17:14;;;;;;;24.67;17.63;;;20.00;74.60;;;;;;5096287;28;20035;-47
2021/06/30 10:19:42;;;;;;;18.58;16.20;;;19.90;74.50;;;;;;5078420;28;20016;-47
2021/06/30 10:22:09;;;;;;;18.42;15.30;;;20.20;73.00;;;;;;5096001;28;20103;-50
2021/06/30 10:24:35;;;;;;;18.63;15.32;;;19.80;73.40;;;;;;5096160;28;20024;-48
2021/06/30 10:27:01;;;;;;;18.73;12.40;;;19.60;74.90;;;;;;5096565;28;20024;-49
2021/06/30 10:29:31;;;;;;;15.88;11.55;;;19.60;73.90;;;;;;5096030;28;20133;-48
2021/06/30 10:32:11;;;;;;;16.02;11.07;;;19.40;74.60;;;;;;5096105;28;20020;-48
2021/06/30 10:34:39;;;;;;;;;;;19.50;74.90;;;;;;5095930;28;20032;-48
2021/06/30 10:37:17;;;;;;;14.20;10.35;;;19.50;74.70;;;;;;5096129;28;19904;-49
2021/06/30 10:39:46;;;;;;;10.65;9.25;;;19.60;75.50;;;;;;5094740;28;20051;-48
2021/06/30 10:42:18;;;;;;;9.48;8.57;;;20.00;73.70;;;;;;5077631;28;20089;-37
2021/06/30 10:44:55;;;;;;;11.27;7.82;;;19.30;75.90;;;;;;5095813;28;20515;-38
2021/06/30 10:47:39;;;;;;;9.75;7.00;;;19.60;75.10;;;;;;5096118;28;20028;-37
2021/06/30 10:50:23;;;;;;;7.43;6.72;;;19.90;73.60;;;;;;5096155;28;20028;-38
2021/06/30 10:52:49;;;;;;;10.23;8.85;;;19.80;73.10;;;;;;5077621;28;20127;-37
2021/06/30 10:55:36;;;;;;;9.93;8.25;;;19.30;74.50;;;;;;5096273;28;20107;-37
2021/06/30 10:58:13;;;;;;;10.05;8.40;;;19.30;74.60;;;;;;5077562;28;20120;-37
2021/06/30 11:00:41;;;;;;;9.55;6.35;;;19.80;73.80;;;;;;5095670;28;20024;-39
2021/06/30 11:03:36;;;;;;;6.88;5.97;;;19.30;74.80;;;;;;5095640;28;20024;-37
2021/06/30 11:06:15;;;;;;;5.30;4.45;;;19.30;74.50;;;;;;5095053;28;20168;-37
2021/06/30 11:08:49;;;;;;;3.88;3.47;;;19.30;75.20;;;;;;5095817;28;20062;-36
2021/06/30 11:11:27;;;;;;;4.82;4.32;;;18.80;76.00;;;;;;5095524;28;20062;-38
2021/06/30 11:14:11;;;;;;;5.63;4.85;;;18.60;77.40;;;;;;5095682;28;20028;-37
2021/06/30 11:16:40;;;;;;;5.10;4.60;;;18.80;77.60;;;;;;5095795;28;20024;-37
2021/06/30 11:19:18;;;;;;;5.88;5.38;;;18.40;77.50;;;;;;5095764;28;20035;-37
2021/06/30 11:22:11;;;;;;;8.05;6.40;;;18.50;77.30;;;;;;5095860;28;20041;-37
2021/06/30 11:24:47;;;;;;;9.90;7.35;;;18.40;78.10;;;;;;5095715;28;20028;-36
2021/06/30 11:27:20;;;;;;;8.25;7.28;;;18.40;78.70;;;;;;5096269;28;20054;-37
2021/06/30 11:29:51;;;;;;;6.40;5.80;;;18.50;78.50;;;;;;5095428;28;20016;-37
2021/06/30 11:32:37;;;;;;;;;;;18.30;78.50;;;;;;5096253;28;20048;-37
2021/06/30 11:35:04;;;;;;;6.82;5.93;;;18.20;79.20;;;;;;5094880;28;20336;-38
2021/06/30 11:37:31;;;;;;;5.90;5.40;;;18.30;78.80;;;;;;5094842;28;20028;-38
2021/06/30 11:40:03;;;;;;;7.55;5.15;;;18.10;79.80;;;;;;5095015;28;20121;-38
2021/06/30 11:42:32;;;;;;;4.97;4.57;;;17.80;80.50;;;;;;5095146;28;20473;-37
2021/06/30 11:44:58;;;;;;;5.22;4.50;;;17.60;82.20;;;;;;5094695;28;20026;-37
2021/06/30 11:47:24;;;;;;;4.85;4.43;;;17.50;82.60;;;;;;5094840;28;20383;-38
2021/06/30 11:50:04;;;;;;;7.18;4.82;;;17.70;83.30;;;;;;5094802;28;20020;-36
2021/06/30 11:52:30;;;;;;;4.97;4.03;;;17.70;82.50;;;;;;5076543;28;20475;-37
2021/06/30 11:55:01;;;;;;;5.18;4.57;;;18.00;81.90;;;;;;5095732;28;20024;-38
2021/06/30 11:57:27;;;;;;;4.30;3.90;;;18.00;81.40;;;;;;5077280;28;20437;-37
2021/06/30 12:00:08;;;;;;;5.00;4.50;;;17.90;81.50;;;;;;5076670;28;20036;-36
2021/06/30 12:02:55;;;;;;;5.57;5.07;;;18.00;81.80;;;;;;5094997;28;20028;-37
2021/06/30 12:05:23;;;;;;;7.25;5.57;;;18.00;82.40;;;;;;5094845;28;20422;-37
2021/06/30 12:07:50;;;;;;;6.72;6.05;;;18.50;80.60;;;;;;5095202;28;20012;-37
2021/06/30 12:10:16;;;;;;;5.72;5.20;;;18.40;79.70;;;;;;5095340;28;20029;-37
2021/06/30 12:12:43;;;;;;;6.78;5.93;;;18.80;78.30;;;;;;5094755;28;20028;-38
2021/06/30 12:15:11;;;;;;;6.72;6.07;;;18.90;77.00;;;;;;5094686;28;20483;-37
2021/06/30 12:17:38;;;;;;;7.80;6.00;;;18.80;77.70;;;;;;5060528;28;20537;-37
2021/06/30 12:20:06;;;;;;;5.00;4.50;;;18.80;77.50;;;;;;5094708;28;20023;-37
2021/06/30 12:22:35;;;;;;;4.97;4.50;;;18.80;78.00;;;;;;5076094;28;20020;-36
2021/06/30 12:25:18;;;;;;;4.88;4.30;;;19.30;76.40;;;;;;5076693;28;20107;-37
2021/06/30 12:27:56;;;;;;;5.50;5.00;;;18.70;78.30;;;;;;5094924;28;20376;-37
2021/06/30 12:30:27;;;;;;;6.05;5.38;;;18.90;77.50;;;;;;5077037;28;20032;-39
2021/06/30 12:32:57;;;;;;;6.93;5.93;;;18.50;78.60;;;;;;5076863;28;20028;-38
2021/06/30 12:35:27;;;;;;;7.00;5.95;;;18.30;79.20;;;;;;5072696;28;20043;-37
2021/06/30 12:38:02;;;;;;;5.10;4.60;;;18.20;79.10;;;;;;5074139;28;20024;-38